sensor_id;sensor_type;location;lat;lon;timestamp;pressure;altitude;pressure_sealevel;temperature;humidity
79028;BME280;68427;48.476;19.102;2023-08-08T00:01:57;97364.66;;;13.27;83.76
79028;BME280;68427;48.476;19.102;2023-08-08T00:04:23;97369.13;;;13.27;83.63
79028;BME280;68427;48.476;19.102;2023-08-08T00:06:50;97370.72;;;13.28;82.99
79028;BME280;68427;48.476;19.102;2023-08-08T00:09:16;97371.53;;;13.28;83.51
79028;BME280;68427;48.476;19.102;2023-08-08T00:11:42;97365.47;;;13.28;83.26
79028;BME280;68427;48.476;19.102;2023-08-08T00:14:07;97373.75;;;13.25;82.94
79028;BME280;68427;48.476;19.102;2023-08-08T00:16:33;97378.00;;;13.26;82.97
79028;BME280;68427;48.476;19.102;2023-08-08T00:18:59;97378.00;;;13.26;83.03
79028;BME280;68427;48.476;19.102;2023-08-08T00:21:24;97374.38;;;13.27;81.11
79028;BME280;68427;48.476;19.102;2023-08-08T00:23:51;97377.19;;;13.25;81.63
79028;BME280;68427;48.476;19.102;2023-08-08T00:26:17;97380.84;;;13.24;83.19
79028;BME280;68427;48.476;19.102;2023-08-08T00:28:43;97382.66;;;13.24;82.85
79028;BME280;68427;48.476;19.102;2023-08-08T00:31:08;97381.84;;;13.23;81.60
79028;BME280;68427;48.476;19.102;2023-08-08T00:33:34;97375.59;;;13.24;81.88
79028;BME280;68427;48.476;19.102;2023-08-08T00:36:00;97383.25;;;13.32;80.48
79028;BME280;68427;48.476;19.102;2023-08-08T00:38:26;97388.28;;;13.34;81.39
79028;BME280;68427;48.476;19.102;2023-08-08T00:40:53;97377.97;;;13.32;81.06
79028;BME280;68427;48.476;19.102;2023-08-08T00:43:18;97382.84;;;13.29;81.35
79028;BME280;68427;48.476;19.102;2023-08-08T00:45:44;97377.81;;;13.27;81.41
79028;BME280;68427;48.476;19.102;2023-08-08T00:48:10;97385.28;;;13.24;81.62
79028;BME280;68427;48.476;19.102;2023-08-08T00:50:36;97385.47;;;13.29;82.19
79028;BME280;68427;48.476;19.102;2023-08-08T00:53:04;97384.47;;;13.30;81.06
79028;BME280;68427;48.476;19.102;2023-08-08T00:55:30;97390.19;;;13.27;80.43
79028;BME280;68427;48.476;19.102;2023-08-08T00:57:58;97391.59;;;13.23;80.78
79028;BME280;68427;48.476;19.102;2023-08-08T01:00:24;97388.16;;;13.22;80.69
79028;BME280;68427;48.476;19.102;2023-08-08T01:02:50;97396.63;;;13.24;81.03
79028;BME280;68427;48.476;19.102;2023-08-08T01:05:16;97385.28;;;13.24;79.82
79028;BME280;68427;48.476;19.102;2023-08-08T01:07:47;97390.63;;;13.17;80.48
79028;BME280;68427;48.476;19.102;2023-08-08T01:10:21;97393.41;;;13.22;81.03
79028;BME280;68427;48.476;19.102;2023-08-08T01:12:52;97391.63;;;13.16;80.40
79028;BME280;68427;48.476;19.102;2023-08-08T01:15:20;97386.00;;;13.12;80.89
79028;BME280;68427;48.476;19.102;2023-08-08T01:17:47;97394.69;;;13.13;80.76
79028;BME280;68427;48.476;19.102;2023-08-08T01:20:14;97397.47;;;13.18;80.60
79028;BME280;68427;48.476;19.102;2023-08-08T01:22:48;97394.22;;;13.23;80.12
79028;BME280;68427;48.476;19.102;2023-08-08T01:25:18;97397.22;;;13.26;79.52
79028;BME280;68427;48.476;19.102;2023-08-08T01:27:44;97410.78;;;13.23;79.21
79028;BME280;68427;48.476;19.102;2023-08-08T01:30:11;97398.06;;;13.20;80.41
79028;BME280;68427;48.476;19.102;2023-08-08T01:32:36;97407.41;;;13.16;80.32
79028;BME280;68427;48.476;19.102;2023-08-08T01:35:03;97404.16;;;13.14;81.03
79028;BME280;68427;48.476;19.102;2023-08-08T01:37:32;97416.53;;;13.13;81.22
79028;BME280;68427;48.476;19.102;2023-08-08T01:40:01;97413.09;;;13.13;81.57
79028;BME280;68427;48.476;19.102;2023-08-08T01:42:29;97414.91;;;13.12;81.94
79028;BME280;68427;48.476;19.102;2023-08-08T01:44:55;97426.03;;;13.14;82.13
79028;BME280;68427;48.476;19.102;2023-08-08T01:47:22;97422.00;;;13.12;82.84
79028;BME280;68427;48.476;19.102;2023-08-08T01:49:48;97420.97;;;13.13;82.06
79028;BME280;68427;48.476;19.102;2023-08-08T01:52:13;97425.63;;;13.11;81.92
79028;BME280;68427;48.476;19.102;2023-08-08T01:54:39;97412.72;;;13.09;83.55
79028;BME280;68427;48.476;19.102;2023-08-08T01:57:05;97422.22;;;13.10;83.00
79028;BME280;68427;48.476;19.102;2023-08-08T01:59:32;97412.13;;;13.07;81.65
79028;BME280;68427;48.476;19.102;2023-08-08T02:01:58;97418.00;;;13.03;83.89
79028;BME280;68427;48.476;19.102;2023-08-08T02:04:24;97413.78;;;13.02;83.20
79028;BME280;68427;48.476;19.102;2023-08-08T02:06:49;97420.69;;;12.96;83.01
79028;BME280;68427;48.476;19.102;2023-08-08T02:09:15;97412.63;;;12.91;82.94
79028;BME280;68427;48.476;19.102;2023-08-08T02:11:41;97425.59;;;12.86;83.62
79028;BME280;68427;48.476;19.102;2023-08-08T02:14:07;97420.38;;;12.79;83.18
79028;BME280;68427;48.476;19.102;2023-08-08T02:16:34;97418.38;;;12.74;81.88
79028;BME280;68427;48.476;19.102;2023-08-08T02:18:59;97416.38;;;12.70;82.73
79028;BME280;68427;48.476;19.102;2023-08-08T02:21:25;97417.81;;;12.66;83.43
79028;BME280;68427;48.476;19.102;2023-08-08T02:23:51;97417.03;;;12.59;83.73
79028;BME280;68427;48.476;19.102;2023-08-08T02:26:16;97422.50;;;12.57;84.02
79028;BME280;68427;48.476;19.102;2023-08-08T02:28:42;97419.88;;;12.57;84.26
79028;BME280;68427;48.476;19.102;2023-08-08T02:31:08;97419.47;;;12.53;84.01
79028;BME280;68427;48.476;19.102;2023-08-08T02:33:36;97424.78;;;12.47;83.39
79028;BME280;68427;48.476;19.102;2023-08-08T02:36:01;97427.63;;;12.39;82.09
79028;BME280;68427;48.476;19.102;2023-08-08T02:38:27;97429.88;;;12.35;82.66
79028;BME280;68427;48.476;19.102;2023-08-08T02:40:53;97433.09;;;12.30;82.53
79028;BME280;68427;48.476;19.102;2023-08-08T02:43:18;97433.53;;;12.21;82.60
79028;BME280;68427;48.476;19.102;2023-08-08T02:45:44;97438.81;;;12.14;83.18
79028;BME280;68427;48.476;19.102;2023-08-08T02:48:10;97436.03;;;12.02;83.92
79028;BME280;68427;48.476;19.102;2023-08-08T02:50:37;97444.50;;;11.91;83.68
79028;BME280;68427;48.476;19.102;2023-08-08T02:53:03;97442.28;;;11.81;84.60
79028;BME280;68427;48.476;19.102;2023-08-08T02:55:28;97435.63;;;11.72;85.00
79028;BME280;68427;48.476;19.102;2023-08-08T02:57:54;97440.25;;;11.70;85.23
79028;BME280;68427;48.476;19.102;2023-08-08T03:00:20;97443.50;;;11.65;85.00
79028;BME280;68427;48.476;19.102;2023-08-08T03:02:45;97441.91;;;11.64;85.35
79028;BME280;68427;48.476;19.102;2023-08-08T03:05:11;97449.34;;;11.61;85.55
79028;BME280;68427;48.476;19.102;2023-08-08T03:07:38;97448.94;;;11.57;85.61
79028;BME280;68427;48.476;19.102;2023-08-08T03:10:04;97444.72;;;11.56;86.05
79028;BME280;68427;48.476;19.102;2023-08-08T03:12:31;97449.34;;;11.48;86.02
79028;BME280;68427;48.476;19.102;2023-08-08T03:14:57;97453.19;;;11.45;85.57
79028;BME280;68427;48.476;19.102;2023-08-08T03:17:23;97455.00;;;11.44;85.91
79028;BME280;68427;48.476;19.102;2023-08-08T03:19:48;97459.84;;;11.34;86.07
79028;BME280;68427;48.476;19.102;2023-08-08T03:22:14;97477.19;;;11.29;85.91
79028;BME280;68427;48.476;19.102;2023-08-08T03:24:41;97480.78;;;11.21;86.38
79028;BME280;68427;48.476;19.102;2023-08-08T03:27:07;97479.16;;;11.13;86.96
79028;BME280;68427;48.476;19.102;2023-08-08T03:29:32;97486.63;;;11.10;87.38
79028;BME280;68427;48.476;19.102;2023-08-08T03:31:58;97492.88;;;11.09;86.86
79028;BME280;68427;48.476;19.102;2023-08-08T03:34:24;97498.34;;;11.14;86.92
79028;BME280;68427;48.476;19.102;2023-08-08T03:36:49;97493.88;;;11.14;85.91
79028;BME280;68427;48.476;19.102;2023-08-08T03:39:15;97489.84;;;11.12;86.17
79028;BME280;68427;48.476;19.102;2023-08-08T03:41:42;97491.84;;;11.10;86.40
79028;BME280;68427;48.476;19.102;2023-08-08T03:44:08;97505.56;;;11.05;86.39
79028;BME280;68427;48.476;19.102;2023-08-08T03:46:34;97492.25;;;11.07;86.79
79028;BME280;68427;48.476;19.102;2023-08-08T03:49:00;97499.53;;;11.11;86.95
79028;BME280;68427;48.476;19.102;2023-08-08T03:51:25;97496.91;;;11.11;87.35
79028;BME280;68427;48.476;19.102;2023-08-08T03:53:52;97503.34;;;11.15;87.71
79028;BME280;68427;48.476;19.102;2023-08-08T03:56:18;97508.41;;;11.17;87.86
79028;BME280;68427;48.476;19.102;2023-08-08T03:58:45;97505.38;;;11.20;87.30
79028;BME280;68427;48.476;19.102;2023-08-08T04:01:11;97500.16;;;11.20;86.77
79028;BME280;68427;48.476;19.102;2023-08-08T04:03:37;97502.78;;;11.27;86.20
79028;BME280;68427;48.476;19.102;2023-08-08T04:06:03;97507.03;;;11.28;86.71
79028;BME280;68427;48.476;19.102;2023-08-08T04:08:28;97514.09;;;11.27;87.01
79028;BME280;68427;48.476;19.102;2023-08-08T04:10:55;97516.91;;;11.25;86.73
79028;BME280;68427;48.476;19.102;2023-08-08T04:13:20;97515.28;;;11.24;87.06
79028;BME280;68427;48.476;19.102;2023-08-08T04:15:47;97528.78;;;11.28;86.96
79028;BME280;68427;48.476;19.102;2023-08-08T04:18:13;97520.53;;;11.24;87.25
79028;BME280;68427;48.476;19.102;2023-08-08T04:20:39;97519.13;;;11.22;87.05
79028;BME280;68427;48.476;19.102;2023-08-08T04:23:04;97518.94;;;11.23;87.15
79028;BME280;68427;48.476;19.102;2023-08-08T04:25:30;97529.81;;;11.27;87.10
79028;BME280;68427;48.476;19.102;2023-08-08T04:27:56;97514.50;;;11.24;86.56
79028;BME280;68427;48.476;19.102;2023-08-08T04:30:21;97522.72;;;11.21;87.06
79028;BME280;68427;48.476;19.102;2023-08-08T04:32:50;97531.41;;;11.21;87.49
79028;BME280;68427;48.476;19.102;2023-08-08T04:35:16;97539.66;;;11.18;87.32
79028;BME280;68427;48.476;19.102;2023-08-08T04:37:42;97550.19;;;11.25;86.63
79028;BME280;68427;48.476;19.102;2023-08-08T04:40:08;97542.53;;;11.23;86.72
79028;BME280;68427;48.476;19.102;2023-08-08T04:42:34;97536.28;;;11.31;86.93
79028;BME280;68427;48.476;19.102;2023-08-08T04:45:00;97547.00;;;11.36;86.91
79028;BME280;68427;48.476;19.102;2023-08-08T04:47:25;97548.78;;;11.36;86.69
79028;BME280;68427;48.476;19.102;2023-08-08T04:49:52;97553.03;;;11.37;87.41
79028;BME280;68427;48.476;19.102;2023-08-08T04:52:18;97561.31;;;11.40;86.98
79028;BME280;68427;48.476;19.102;2023-08-08T04:54:44;97561.53;;;11.45;87.16
79028;BME280;68427;48.476;19.102;2023-08-08T04:57:10;97568.00;;;11.50;86.63
79028;BME280;68427;48.476;19.102;2023-08-08T04:59:35;97565.59;;;11.55;86.61
79028;BME280;68427;48.476;19.102;2023-08-08T05:02:01;97581.53;;;11.60;86.21
79028;BME280;68427;48.476;19.102;2023-08-08T05:04:27;97583.97;;;11.68;86.29
79028;BME280;68427;48.476;19.102;2023-08-08T05:06:54;97585.59;;;11.82;84.72
79028;BME280;68427;48.476;19.102;2023-08-08T05:09:19;97598.38;;;11.92;85.71
79028;BME280;68427;48.476;19.102;2023-08-08T05:11:46;97599.38;;;11.98;84.66
79028;BME280;68427;48.476;19.102;2023-08-08T05:14:11;97607.03;;;12.06;84.82
79028;BME280;68427;48.476;19.102;2023-08-08T05:16:37;97608.66;;;12.14;85.60
79028;BME280;68427;48.476;19.102;2023-08-08T05:19:03;97609.69;;;12.26;84.44
79028;BME280;68427;48.476;19.102;2023-08-08T05:21:29;97613.13;;;12.40;83.16
79028;BME280;68427;48.476;19.102;2023-08-08T05:23:56;97612.09;;;12.54;84.02
79028;BME280;68427;48.476;19.102;2023-08-08T05:26:21;97617.72;;;12.71;82.12
79028;BME280;68427;48.476;19.102;2023-08-08T05:28:48;97614.03;;;12.92;81.09
79028;BME280;68427;48.476;19.102;2023-08-08T05:31:14;97618.59;;;13.23;79.16
79028;BME280;68427;48.476;19.102;2023-08-08T05:33:40;97620.69;;;13.59;78.56
79028;BME280;68427;48.476;19.102;2023-08-08T05:36:06;97629.56;;;13.97;77.31
79028;BME280;68427;48.476;19.102;2023-08-08T05:38:32;97624.06;;;14.30;76.78
79028;BME280;68427;48.476;19.102;2023-08-08T05:40:59;97629.25;;;14.37;73.85
79028;BME280;68427;48.476;19.102;2023-08-08T05:43:25;97621.59;;;14.60;70.61
79028;BME280;68427;48.476;19.102;2023-08-08T05:45:52;97622.25;;;14.74;69.92
79028;BME280;68427;48.476;19.102;2023-08-08T05:48:18;97632.69;;;14.87;70.17
79028;BME280;68427;48.476;19.102;2023-08-08T05:50:44;97627.97;;;14.71;70.60
79028;BME280;68427;48.476;19.102;2023-08-08T05:53:09;97642.88;;;14.59;71.01
79028;BME280;68427;48.476;19.102;2023-08-08T05:55:35;97639.25;;;14.60;71.20
79028;BME280;68427;48.476;19.102;2023-08-08T05:58:02;97649.94;;;14.65;70.82
79028;BME280;68427;48.476;19.102;2023-08-08T06:00:29;97640.31;;;14.77;69.12
79028;BME280;68427;48.476;19.102;2023-08-08T06:02:55;97645.25;;;14.67;70.01
79028;BME280;68427;48.476;19.102;2023-08-08T06:05:22;97647.34;;;15.20;68.01
79028;BME280;68427;48.476;19.102;2023-08-08T06:07:48;97643.59;;;16.07;64.44
79028;BME280;68427;48.476;19.102;2023-08-08T06:10:14;97646.25;;;16.07;62.26
79028;BME280;68427;48.476;19.102;2023-08-08T06:12:40;97647.78;;;16.26;63.88
79028;BME280;68427;48.476;19.102;2023-08-08T06:15:08;97641.75;;;16.61;60.00
79028;BME280;68427;48.476;19.102;2023-08-08T06:17:34;97636.69;;;17.47;58.08
79028;BME280;68427;48.476;19.102;2023-08-08T06:20:00;97630.41;;;17.24;58.09
79028;BME280;68427;48.476;19.102;2023-08-08T06:22:25;97638.84;;;17.50;57.54
79028;BME280;68427;48.476;19.102;2023-08-08T06:24:51;97632.84;;;18.46;56.31
79028;BME280;68427;48.476;19.102;2023-08-08T06:27:17;97634.84;;;19.55;53.77
79028;BME280;68427;48.476;19.102;2023-08-08T06:29:43;97635.91;;;20.68;51.55
79028;BME280;68427;48.476;19.102;2023-08-08T06:32:10;97643.06;;;20.03;51.97
79028;BME280;68427;48.476;19.102;2023-08-08T06:34:36;97636.50;;;20.11;49.79
79028;BME280;68427;48.476;19.102;2023-08-08T06:37:02;97652.16;;;20.07;51.44
79028;BME280;68427;48.476;19.102;2023-08-08T06:39:27;97643.06;;;20.03;50.53
79028;BME280;68427;48.476;19.102;2023-08-08T06:41:53;97642.25;;;20.29;52.72
79028;BME280;68427;48.476;19.102;2023-08-08T06:44:19;97646.34;;;20.10;50.80
79028;BME280;68427;48.476;19.102;2023-08-08T06:46:44;97640.22;;;20.10;49.59
79028;BME280;68427;48.476;19.102;2023-08-08T06:49:11;97633.31;;;19.81;50.00
79028;BME280;68427;48.476;19.102;2023-08-08T06:51:37;97633.16;;;19.93;51.34
79028;BME280;68427;48.476;19.102;2023-08-08T06:54:03;97631.13;;;19.78;50.23
79028;BME280;68427;48.476;19.102;2023-08-08T06:56:29;97636.03;;;19.87;51.11
79028;BME280;68427;48.476;19.102;2023-08-08T06:58:54;97630.81;;;20.29;50.50
79028;BME280;68427;48.476;19.102;2023-08-08T07:01:20;97636.97;;;20.02;48.42
79028;BME280;68427;48.476;19.102;2023-08-08T07:03:46;97628.19;;;20.02;50.74
79028;BME280;68427;48.476;19.102;2023-08-08T07:06:17;97634.84;;;20.04;48.80
79028;BME280;68427;48.476;19.102;2023-08-08T07:08:43;97638.03;;;21.19;46.94
79028;BME280;68427;48.476;19.102;2023-08-08T07:11:09;97634.00;;;21.06;46.39
79028;BME280;68427;48.476;19.102;2023-08-08T07:13:34;97637.88;;;20.88;47.11
79028;BME280;68427;48.476;19.102;2023-08-08T07:16:00;97638.69;;;20.51;46.45
79028;BME280;68427;48.476;19.102;2023-08-08T07:18:26;97641.53;;;20.39;48.07
79028;BME280;68427;48.476;19.102;2023-08-08T07:20:52;97646.59;;;20.41;47.41
79028;BME280;68427;48.476;19.102;2023-08-08T07:23:19;97643.28;;;20.56;48.85
79028;BME280;68427;48.476;19.102;2023-08-08T07:25:45;97632.28;;;20.47;46.48
79028;BME280;68427;48.476;19.102;2023-08-08T07:28:11;97630.03;;;20.34;45.48
79028;BME280;68427;48.476;19.102;2023-08-08T07:30:37;97635.97;;;20.46;47.08
79028;BME280;68427;48.476;19.102;2023-08-08T07:33:03;97649.56;;;20.44;49.04
79028;BME280;68427;48.476;19.102;2023-08-08T07:35:28;97649.47;;;20.34;45.88
79028;BME280;68427;48.476;19.102;2023-08-08T07:37:54;97645.31;;;20.48;47.76
79028;BME280;68427;48.476;19.102;2023-08-08T07:40:21;97642.22;;;20.57;44.97
79028;BME280;68427;48.476;19.102;2023-08-08T07:42:47;97644.91;;;20.57;46.86
79028;BME280;68427;48.476;19.102;2023-08-08T07:45:14;97642.97;;;20.52;47.46
79028;BME280;68427;48.476;19.102;2023-08-08T07:47:39;97650.41;;;20.18;45.14
79028;BME280;68427;48.476;19.102;2023-08-08T07:50:06;97649.59;;;19.90;46.57
79028;BME280;68427;48.476;19.102;2023-08-08T07:52:35;97644.06;;;19.92;47.11
79028;BME280;68427;48.476;19.102;2023-08-08T07:55:01;97655.19;;;19.67;46.33
79028;BME280;68427;48.476;19.102;2023-08-08T07:57:28;97651.69;;;19.39;46.91
79028;BME280;68427;48.476;19.102;2023-08-08T07:59:55;97653.56;;;19.43;47.79
79028;BME280;68427;48.476;19.102;2023-08-08T08:02:22;97650.31;;;19.80;49.05
79028;BME280;68427;48.476;19.102;2023-08-08T08:04:48;97641.34;;;19.87;45.99
79028;BME280;68427;48.476;19.102;2023-08-08T08:07:14;97641.31;;;20.46;46.14
79028;BME280;68427;48.476;19.102;2023-08-08T08:09:40;97655.34;;;21.16;45.79
79028;BME280;68427;48.476;19.102;2023-08-08T08:12:08;97649.81;;;21.28;46.70
79028;BME280;68427;48.476;19.102;2023-08-08T08:14:35;97647.09;;;21.12;45.39
79028;BME280;68427;48.476;19.102;2023-08-08T08:17:01;97650.06;;;21.26;46.23
79028;BME280;68427;48.476;19.102;2023-08-08T08:19:27;97651.09;;;21.93;45.32
79028;BME280;68427;48.476;19.102;2023-08-08T08:21:52;97635.69;;;22.47;40.81
79028;BME280;68427;48.476;19.102;2023-08-08T08:24:18;97652.19;;;22.84;41.72
79028;BME280;68427;48.476;19.102;2023-08-08T08:26:44;97636.28;;;23.39;39.99
79028;BME280;68427;48.476;19.102;2023-08-08T08:29:09;97639.31;;;23.77;41.02
79028;BME280;68427;48.476;19.102;2023-08-08T08:31:37;97644.22;;;24.44;38.71
79028;BME280;68427;48.476;19.102;2023-08-08T08:34:03;97634.38;;;24.34;38.33
79028;BME280;68427;48.476;19.102;2023-08-08T08:36:30;97637.44;;;25.34;36.62
79028;BME280;68427;48.476;19.102;2023-08-08T08:38:55;97638.84;;;25.50;37.60
79028;BME280;68427;48.476;19.102;2023-08-08T08:41:25;97634.06;;;24.99;38.21
79028;BME280;68427;48.476;19.102;2023-08-08T08:43:51;97636.91;;;25.08;37.88
79028;BME280;68427;48.476;19.102;2023-08-08T08:46:20;97642.41;;;24.68;40.38
79028;BME280;68427;48.476;19.102;2023-08-08T08:48:49;97641.03;;;25.24;36.61
79028;BME280;68427;48.476;19.102;2023-08-08T08:51:16;97641.44;;;25.98;34.78
79028;BME280;68427;48.476;19.102;2023-08-08T08:53:42;97635.53;;;26.15;33.93
79028;BME280;68427;48.476;19.102;2023-08-08T08:56:12;97637.00;;;26.40;35.18
79028;BME280;68427;48.476;19.102;2023-08-08T08:58:38;97630.16;;;26.94;34.67
79028;BME280;68427;48.476;19.102;2023-08-08T09:01:04;97633.94;;;28.44;32.79
79028;BME280;68427;48.476;19.102;2023-08-08T09:03:30;97622.59;;;29.10;30.87
79028;BME280;68427;48.476;19.102;2023-08-08T09:05:58;97631.78;;;29.83;28.21
79028;BME280;68427;48.476;19.102;2023-08-08T09:08:25;97631.34;;;29.24;29.49
79028;BME280;68427;48.476;19.102;2023-08-08T09:10:51;97621.47;;;28.03;30.82
79028;BME280;68427;48.476;19.102;2023-08-08T09:13:18;97621.47;;;26.37;31.73
79028;BME280;68427;48.476;19.102;2023-08-08T09:15:47;97629.88;;;25.98;33.35
79028;BME280;68427;48.476;19.102;2023-08-08T09:18:14;97624.63;;;25.50;33.30
79028;BME280;68427;48.476;19.102;2023-08-08T09:20:40;97626.34;;;25.40;33.75
79028;BME280;68427;48.476;19.102;2023-08-08T09:23:09;97624.88;;;25.05;36.99
79028;BME280;68427;48.476;19.102;2023-08-08T09:25:35;97618.50;;;25.01;34.54
79028;BME280;68427;48.476;19.102;2023-08-08T09:28:01;97627.34;;;25.01;35.56
79028;BME280;68427;48.476;19.102;2023-08-08T09:30:27;97631.53;;;26.13;34.73
79028;BME280;68427;48.476;19.102;2023-08-08T09:32:53;97631.53;;;26.78;33.00
79028;BME280;68427;48.476;19.102;2023-08-08T09:35:19;97621.53;;;27.75;31.10
79028;BME280;68427;48.476;19.102;2023-08-08T09:37:44;97625.69;;;28.18;29.75
79028;BME280;68427;48.476;19.102;2023-08-08T09:40:12;97623.06;;;28.04;29.97
79028;BME280;68427;48.476;19.102;2023-08-08T09:42:39;97627.50;;;27.22;30.62
79028;BME280;68427;48.476;19.102;2023-08-08T09:45:07;97636.78;;;26.56;31.35
79028;BME280;68427;48.476;19.102;2023-08-08T09:47:33;97637.22;;;26.90;33.29
79028;BME280;68427;48.476;19.102;2023-08-08T09:49:59;97635.84;;;26.79;32.72
79028;BME280;68427;48.476;19.102;2023-08-08T09:52:27;97636.19;;;25.69;32.76
79028;BME280;68427;48.476;19.102;2023-08-08T09:54:53;97629.75;;;25.03;34.10
79028;BME280;68427;48.476;19.102;2023-08-08T09:57:20;97629.34;;;24.91;35.75
79028;BME280;68427;48.476;19.102;2023-08-08T09:59:47;97622.13;;;24.86;36.48
79028;BME280;68427;48.476;19.102;2023-08-08T10:02:14;97627.72;;;24.66;37.99
79028;BME280;68427;48.476;19.102;2023-08-08T10:04:46;97632.34;;;24.21;37.93
79028;BME280;68427;48.476;19.102;2023-08-08T10:07:12;97629.00;;;24.00;38.71
79028;BME280;68427;48.476;19.102;2023-08-08T10:09:38;97631.75;;;24.29;37.60
79028;BME280;68427;48.476;19.102;2023-08-08T10:12:08;97628.75;;;25.18;35.48
79028;BME280;68427;48.476;19.102;2023-08-08T10:14:36;97627.91;;;26.55;31.80
79028;BME280;68427;48.476;19.102;2023-08-08T10:17:03;97628.50;;;28.13;31.24
79028;BME280;68427;48.476;19.102;2023-08-08T10:19:29;97621.59;;;29.05;29.36
79028;BME280;68427;48.476;19.102;2023-08-08T10:21:58;97610.72;;;29.37;26.46
79028;BME280;68427;48.476;19.102;2023-08-08T10:24:24;97608.38;;;30.40;26.41
79028;BME280;68427;48.476;19.102;2023-08-08T10:26:53;97607.94;;;31.23;25.33
79028;BME280;68427;48.476;19.102;2023-08-08T10:29:20;97602.88;;;29.84;27.52
79028;BME280;68427;48.476;19.102;2023-08-08T10:31:52;97599.75;;;28.45;28.33
79028;BME280;68427;48.476;19.102;2023-08-08T10:34:20;97608.31;;;27.65;30.89
79028;BME280;68427;48.476;19.102;2023-08-08T10:36:50;97601.13;;;27.24;30.25
79028;BME280;68427;48.476;19.102;2023-08-08T10:39:17;97588.06;;;27.68;28.09
79028;BME280;68427;48.476;19.102;2023-08-08T10:41:47;97588.84;;;26.90;31.32
79028;BME280;68427;48.476;19.102;2023-08-08T10:44:13;97596.50;;;25.47;32.72
79028;BME280;68427;48.476;19.102;2023-08-08T10:46:41;97591.31;;;25.94;31.11
79028;BME280;68427;48.476;19.102;2023-08-08T10:49:08;97590.56;;;28.00;31.08
79028;BME280;68427;48.476;19.102;2023-08-08T10:51:39;97584.28;;;26.44;28.69
79028;BME280;68427;48.476;19.102;2023-08-08T10:54:05;97590.78;;;25.73;32.09
79028;BME280;68427;48.476;19.102;2023-08-08T10:56:31;97582.44;;;25.74;32.93
79028;BME280;68427;48.476;19.102;2023-08-08T10:58:57;97584.56;;;27.17;29.78
79028;BME280;68427;48.476;19.102;2023-08-08T11:01:24;97574.53;;;27.95;28.38
79028;BME280;68427;48.476;19.102;2023-08-08T11:03:50;97571.13;;;28.66;29.61
79028;BME280;68427;48.476;19.102;2023-08-08T11:06:17;97575.06;;;29.92;25.45
79028;BME280;68427;48.476;19.102;2023-08-08T11:08:44;97578.41;;;29.71;24.83
79028;BME280;68427;48.476;19.102;2023-08-08T11:11:10;97581.75;;;30.68;26.50
79028;BME280;68427;48.476;19.102;2023-08-08T11:13:35;97570.31;;;31.30;24.39
79028;BME280;68427;48.476;19.102;2023-08-08T11:16:01;97567.31;;;31.53;24.06
79028;BME280;68427;48.476;19.102;2023-08-08T11:18:27;97577.41;;;31.43;23.67
79028;BME280;68427;48.476;19.102;2023-08-08T11:20:54;97571.06;;;31.10;25.46
79028;BME280;68427;48.476;19.102;2023-08-08T11:23:21;97569.19;;;31.31;23.79
79028;BME280;68427;48.476;19.102;2023-08-08T11:25:48;97562.84;;;32.11;23.61
79028;BME280;68427;48.476;19.102;2023-08-08T11:28:15;97556.03;;;31.51;23.68
79028;BME280;68427;48.476;19.102;2023-08-08T11:30:43;97568.88;;;31.75;22.98
79028;BME280;68427;48.476;19.102;2023-08-08T11:33:09;97577.44;;;30.67;25.90
79028;BME280;68427;48.476;19.102;2023-08-08T11:35:36;97580.91;;;28.53;28.08
79028;BME280;68427;48.476;19.102;2023-08-08T11:38:03;97594.31;;;27.13;30.50
79028;BME280;68427;48.476;19.102;2023-08-08T11:40:31;97603.00;;;25.22;34.95
79028;BME280;68427;48.476;19.102;2023-08-08T11:42:58;97614.00;;;23.59;37.67
79028;BME280;68427;48.476;19.102;2023-08-08T11:45:24;97620.47;;;22.21;41.21
79028;BME280;68427;48.476;19.102;2023-08-08T11:47:51;97635.59;;;21.70;43.55
79028;BME280;68427;48.476;19.102;2023-08-08T11:50:19;97632.66;;;21.08;47.37
79028;BME280;68427;48.476;19.102;2023-08-08T11:52:46;97638.84;;;20.71;50.71
79028;BME280;68427;48.476;19.102;2023-08-08T11:55:12;97630.34;;;20.37;53.25
79028;BME280;68427;48.476;19.102;2023-08-08T11:57:40;97634.72;;;20.21;56.15
79028;BME280;68427;48.476;19.102;2023-08-08T12:00:07;97635.22;;;20.18;56.69
79028;BME280;68427;48.476;19.102;2023-08-08T12:02:34;97631.50;;;20.14;57.78
79028;BME280;68427;48.476;19.102;2023-08-08T12:05:04;97622.25;;;19.46;58.27
79028;BME280;68427;48.476;19.102;2023-08-08T12:07:32;97635.81;;;19.44;60.41
79028;BME280;68427;48.476;19.102;2023-08-08T12:09:58;97637.34;;;19.18;58.53
79028;BME280;68427;48.476;19.102;2023-08-08T12:12:25;97642.31;;;18.92;60.55
79028;BME280;68427;48.476;19.102;2023-08-08T12:14:55;97649.97;;;18.89;60.25
79028;BME280;68427;48.476;19.102;2023-08-08T12:17:20;97659.53;;;18.90;60.63
79028;BME280;68427;48.476;19.102;2023-08-08T12:19:47;97661.19;;;18.96;61.31
79028;BME280;68427;48.476;19.102;2023-08-08T12:22:13;97649.41;;;18.87;60.96
79028;BME280;68427;48.476;19.102;2023-08-08T12:24:39;97637.38;;;18.79;60.04
79028;BME280;68427;48.476;19.102;2023-08-08T12:27:05;97643.44;;;18.96;62.83
79028;BME280;68427;48.476;19.102;2023-08-08T12:29:32;97638.06;;;19.57;63.11
79028;BME280;68427;48.476;19.102;2023-08-08T12:31:59;97631.13;;;20.05;61.19
79028;BME280;68427;48.476;19.102;2023-08-08T12:34:27;97631.84;;;20.55;59.81
79028;BME280;68427;48.476;19.102;2023-08-08T12:36:53;97630.44;;;20.85;60.33
79028;BME280;68427;48.476;19.102;2023-08-08T12:39:19;97626.47;;;20.92;56.89
79028;BME280;68427;48.476;19.102;2023-08-08T12:41:44;97613.38;;;20.86;57.98
79028;BME280;68427;48.476;19.102;2023-08-08T12:44:10;97608.44;;;20.57;54.89
79028;BME280;68427;48.476;19.102;2023-08-08T12:46:36;97606.13;;;20.39;54.88